sensor_id;sensor_type;location;lat;lon;timestamp;temperature;humidity
16976;DHT22;8604;48.148;-1.786;2023-03-21T00:00:43;9.40;99.90
16976;DHT22;8604;48.148;-1.786;2023-03-21T00:03:12;9.40;99.90
16976;DHT22;8604;48.148;-1.786;2023-03-21T00:05:40;9.40;99.90
16976;DHT22;8604;48.148;-1.786;2023-03-21T00:08:10;9.40;99.90
16976;DHT22;8604;48.148;-1.786;2023-03-21T00:10:39;9.40;99.90
16976;DHT22;8604;48.148;-1.786;2023-03-21T00:13:10;9.40;99.90
16976;DHT22;8604;48.148;-1.786;2023-03-21T00:15:39;9.40;99.90
16976;DHT22;8604;48.148;-1.786;2023-03-21T00:18:30;9.40;99.90
16976;DHT22;8604;48.148;-1.786;2023-03-21T00:20:59;9.40;99.90
16976;DHT22;8604;48.148;-1.786;2023-03-21T00:23:49;9.40;99.90
16976;DHT22;8604;48.148;-1.786;2023-03-21T00:26:18;9.40;99.90
16976;DHT22;8604;48.148;-1.786;2023-03-21T00:28:48;9.40;99.90
16976;DHT22;8604;48.148;-1.786;2023-03-21T00:31:19;9.40;99.90
16976;DHT22;8604;48.148;-1.786;2023-03-21T00:33:49;9.40;99.90
16976;DHT22;8604;48.148;-1.786;2023-03-21T00:36:17;9.40;99.90
16976;DHT22;8604;48.148;-1.786;2023-03-21T00:38:46;9.40;99.90
16976;DHT22;8604;48.148;-1.786;2023-03-21T00:41:16;9.40;99.90
16976;DHT22;8604;48.148;-1.786;2023-03-21T00:44:04;9.40;99.90
16976;DHT22;8604;48.148;-1.786;2023-03-21T00:46:32;9.40;99.90
16976;DHT22;8604;48.148;-1.786;2023-03-21T00:49:15;9.40;99.90
16976;DHT22;8604;48.148;-1.786;2023-03-21T00:51:43;9.40;99.90
16976;DHT22;8604;48.148;-1.786;2023-03-21T00:54:12;9.40;99.90
16976;DHT22;8604;48.148;-1.786;2023-03-21T00:56:42;9.40;99.90
16976;DHT22;8604;48.148;-1.786;2023-03-21T00:59:10;9.40;99.90
16976;DHT22;8604;48.148;-1.786;2023-03-21T01:01:39;9.40;99.90
16976;DHT22;8604;48.148;-1.786;2023-03-21T01:04:07;9.40;99.90
16976;DHT22;8604;48.148;-1.786;2023-03-21T01:06:41;9.40;99.90
16976;DHT22;8604;48.148;-1.786;2023-03-21T01:09:12;9.40;99.90
16976;DHT22;8604;48.148;-1.786;2023-03-21T01:11:42;9.40;99.90
16976;DHT22;8604;48.148;-1.786;2023-03-21T01:14:12;9.40;99.90
16976;DHT22;8604;48.148;-1.786;2023-03-21T01:16:49;9.40;99.90
16976;DHT22;8604;48.148;-1.786;2023-03-21T01:19:20;9.40;99.90
16976;DHT22;8604;48.148;-1.786;2023-03-21T01:21:57;9.40;99.90
16976;DHT22;8604;48.148;-1.786;2023-03-21T01:24:25;9.40;99.90
16976;DHT22;8604;48.148;-1.786;2023-03-21T01:26:55;9.40;99.90
16976;DHT22;8604;48.148;-1.786;2023-03-21T01:29:24;9.40;99.90
16976;DHT22;8604;48.148;-1.786;2023-03-21T01:31:53;9.40;99.90
16976;DHT22;8604;48.148;-1.786;2023-03-21T01:34:22;9.40;99.90
16976;DHT22;8604;48.148;-1.786;2023-03-21T01:36:50;9.50;99.90
16976;DHT22;8604;48.148;-1.786;2023-03-21T01:39:20;9.40;99.90
16976;DHT22;8604;48.148;-1.786;2023-03-21T01:41:49;9.40;99.90
16976;DHT22;8604;48.148;-1.786;2023-03-21T01:44:22;9.40;99.90
16976;DHT22;8604;48.148;-1.786;2023-03-21T01:46:51;9.40;99.90
16976;DHT22;8604;48.148;-1.786;2023-03-21T01:49:45;9.40;99.90
16976;DHT22;8604;48.148;-1.786;2023-03-21T01:52:27;9.40;99.90
16976;DHT22;8604;48.148;-1.786;2023-03-21T01:55:09;9.40;99.90
16976;DHT22;8604;48.148;-1.786;2023-03-21T01:57:47;9.40;99.90
16976;DHT22;8604;48.148;-1.786;2023-03-21T02:00:39;9.40;99.90
16976;DHT22;8604;48.148;-1.786;2023-03-21T02:03:22;9.40;99.90
16976;DHT22;8604;48.148;-1.786;2023-03-21T02:06:42;9.40;99.90
16976;DHT22;8604;48.148;-1.786;2023-03-21T02:09:44;9.40;99.90
16976;DHT22;8604;48.148;-1.786;2023-03-21T02:12:17;9.40;99.90
16976;DHT22;8604;48.148;-1.786;2023-03-21T02:14:48;9.40;99.90
16976;DHT22;8604;48.148;-1.786;2023-03-21T02:17:32;9.40;99.90
16976;DHT22;8604;48.148;-1.786;2023-03-21T02:20:27;9.50;99.90
16976;DHT22;8604;48.148;-1.786;2023-03-21T02:26:58;9.50;99.90
16976;DHT22;8604;48.148;-1.786;2023-03-21T02:33:10;9.50;99.90
16976;DHT22;8604;48.148;-1.786;2023-03-21T02:35:52;9.50;99.90
16976;DHT22;8604;48.148;-1.786;2023-03-21T02:38:34;9.50;99.90
16976;DHT22;8604;48.148;-1.786;2023-03-21T02:41:11;9.50;99.90
16976;DHT22;8604;48.148;-1.786;2023-03-21T02:43:51;9.60;99.90
16976;DHT22;8604;48.148;-1.786;2023-03-21T02:46:29;9.60;99.90
16976;DHT22;8604;48.148;-1.786;2023-03-21T02:49:17;9.60;99.90
16976;DHT22;8604;48.148;-1.786;2023-03-21T02:51:49;9.60;99.90
16976;DHT22;8604;48.148;-1.786;2023-03-21T02:54:22;9.60;99.90
16976;DHT22;8604;48.148;-1.786;2023-03-21T02:57:11;9.60;99.90
16976;DHT22;8604;48.148;-1.786;2023-03-21T02:59:40;9.60;99.90
16976;DHT22;8604;48.148;-1.786;2023-03-21T03:02:26;9.60;99.90
16976;DHT22;8604;48.148;-1.786;2023-03-21T03:04:55;9.70;99.90
16976;DHT22;8604;48.148;-1.786;2023-03-21T03:07:34;9.70;99.90
16976;DHT22;8604;48.148;-1.786;2023-03-21T03:10:20;9.70;99.90
16976;DHT22;8604;48.148;-1.786;2023-03-21T03:12:57;9.70;99.90
16976;DHT22;8604;48.148;-1.786;2023-03-21T03:15:37;9.70;99.90
16976;DHT22;8604;48.148;-1.786;2023-03-21T03:18:18;9.70;99.90
16976;DHT22;8604;48.148;-1.786;2023-03-21T03:20:54;9.70;99.90
16976;DHT22;8604;48.148;-1.786;2023-03-21T03:23:29;9.70;99.90
16976;DHT22;8604;48.148;-1.786;2023-03-21T03:26:05;9.80;99.90
16976;DHT22;8604;48.148;-1.786;2023-03-21T03:28:39;9.80;99.90
16976;DHT22;8604;48.148;-1.786;2023-03-21T03:31:16;9.80;99.90
16976;DHT22;8604;48.148;-1.786;2023-03-21T03:33:54;9.80;99.90
16976;DHT22;8604;48.148;-1.786;2023-03-21T03:36:26;9.80;99.90
16976;DHT22;8604;48.148;-1.786;2023-03-21T03:39:05;9.80;99.90
16976;DHT22;8604;48.148;-1.786;2023-03-21T03:41:40;9.80;99.90
16976;DHT22;8604;48.148;-1.786;2023-03-21T03:44:36;9.80;99.90
16976;DHT22;8604;48.148;-1.786;2023-03-21T03:47:08;9.80;99.90
16976;DHT22;8604;48.148;-1.786;2023-03-21T03:49:48;9.90;99.90
16976;DHT22;8604;48.148;-1.786;2023-03-21T03:52:20;9.80;99.90
16976;DHT22;8604;48.148;-1.786;2023-03-21T03:54:57;9.90;99.90
16976;DHT22;8604;48.148;-1.786;2023-03-21T03:57:32;9.90;99.90
16976;DHT22;8604;48.148;-1.786;2023-03-21T04:00:01;9.90;99.90
16976;DHT22;8604;48.148;-1.786;2023-03-21T04:02:43;9.90;99.90
16976;DHT22;8604;48.148;-1.786;2023-03-21T04:05:17;9.90;99.90
16976;DHT22;8604;48.148;-1.786;2023-03-21T04:07:47;9.90;99.90
16976;DHT22;8604;48.148;-1.786;2023-03-21T04:10:20;9.90;99.90
16976;DHT22;8604;48.148;-1.786;2023-03-21T04:12:50;9.90;99.90
16976;DHT22;8604;48.148;-1.786;2023-03-21T04:15:24;9.90;99.90
16976;DHT22;8604;48.148;-1.786;2023-03-21T04:17:59;9.90;99.90
16976;DHT22;8604;48.148;-1.786;2023-03-21T04:20:29;9.90;99.90
16976;DHT22;8604;48.148;-1.786;2023-03-21T04:23:04;9.90;99.90
16976;DHT22;8604;48.148;-1.786;2023-03-21T04:25:34;10.00;99.90
16976;DHT22;8604;48.148;-1.786;2023-03-21T04:28:08;9.90;99.90
16976;DHT22;8604;48.148;-1.786;2023-03-21T04:30:39;10.00;99.90
16976;DHT22;8604;48.148;-1.786;2023-03-21T04:33:24;10.00;99.90
16976;DHT22;8604;48.148;-1.786;2023-03-21T04:35:58;10.00;99.90
16976;DHT22;8604;48.148;-1.786;2023-03-21T04:38:30;10.00;99.90
16976;DHT22;8604;48.148;-1.786;2023-03-21T04:41:02;10.00;99.90
16976;DHT22;8604;48.148;-1.786;2023-03-21T04:43:32;10.00;99.90
16976;DHT22;8604;48.148;-1.786;2023-03-21T04:46:01;10.00;99.90
16976;DHT22;8604;48.148;-1.786;2023-03-21T04:48:30;10.00;99.90
16976;DHT22;8604;48.148;-1.786;2023-03-21T04:51:00;10.00;99.90
16976;DHT22;8604;48.148;-1.786;2023-03-21T04:53:28;10.10;99.90
16976;DHT22;8604;48.148;-1.786;2023-03-21T04:55:57;10.00;99.90
16976;DHT22;8604;48.148;-1.786;2023-03-21T04:58:26;10.10;99.90
16976;DHT22;8604;48.148;-1.786;2023-03-21T05:00:58;10.10;99.90
16976;DHT22;8604;48.148;-1.786;2023-03-21T05:03:31;10.10;99.90
16976;DHT22;8604;48.148;-1.786;2023-03-21T05:06:00;10.00;99.90
16976;DHT22;8604;48.148;-1.786;2023-03-21T05:08:29;10.10;99.90
16976;DHT22;8604;48.148;-1.786;2023-03-21T05:10:59;10.10;99.90
16976;DHT22;8604;48.148;-1.786;2023-03-21T05:13:30;10.10;99.90
16976;DHT22;8604;48.148;-1.786;2023-03-21T05:16:00;10.10;99.90
16976;DHT22;8604;48.148;-1.786;2023-03-21T05:18:29;10.10;99.90
16976;DHT22;8604;48.148;-1.786;2023-03-21T05:21:07;10.10;99.90
16976;DHT22;8604;48.148;-1.786;2023-03-21T05:23:38;10.10;99.90
16976;DHT22;8604;48.148;-1.786;2023-03-21T05:26:08;10.10;99.90
16976;DHT22;8604;48.148;-1.786;2023-03-21T05:28:52;10.20;99.90
16976;DHT22;8604;48.148;-1.786;2023-03-21T05:31:22;10.20;99.90
16976;DHT22;8604;48.148;-1.786;2023-03-21T05:33:57;10.10;99.90
16976;DHT22;8604;48.148;-1.786;2023-03-21T05:36:26;10.20;99.90
16976;DHT22;8604;48.148;-1.786;2023-03-21T05:38:55;10.20;99.90
16976;DHT22;8604;48.148;-1.786;2023-03-21T05:41:23;10.20;99.90
16976;DHT22;8604;48.148;-1.786;2023-03-21T05:43:54;10.20;99.90
16976;DHT22;8604;48.148;-1.786;2023-03-21T05:46:27;10.20;99.90
16976;DHT22;8604;48.148;-1.786;2023-03-21T05:48:55;10.20;99.90
16976;DHT22;8604;48.148;-1.786;2023-03-21T05:51:27;10.20;99.90
16976;DHT22;8604;48.148;-1.786;2023-03-21T05:53:55;10.30;99.90
16976;DHT22;8604;48.148;-1.786;2023-03-21T05:56:24;10.30;99.90
16976;DHT22;8604;48.148;-1.786;2023-03-21T05:59:01;10.30;99.90
16976;DHT22;8604;48.148;-1.786;2023-03-21T06:01:34;10.30;99.90
16976;DHT22;8604;48.148;-1.786;2023-03-21T06:04:10;10.30;99.90
16976;DHT22;8604;48.148;-1.786;2023-03-21T06:06:39;10.30;99.90
16976;DHT22;8604;48.148;-1.786;2023-03-21T06:09:08;10.30;99.90
16976;DHT22;8604;48.148;-1.786;2023-03-21T06:11:41;10.30;99.90
16976;DHT22;8604;48.148;-1.786;2023-03-21T06:14:26;10.30;99.90
16976;DHT22;8604;48.148;-1.786;2023-03-21T06:17:14;10.40;99.90
16976;DHT22;8604;48.148;-1.786;2023-03-21T06:19:49;10.40;99.90
16976;DHT22;8604;48.148;-1.786;2023-03-21T06:22:25;10.40;99.90
16976;DHT22;8604;48.148;-1.786;2023-03-21T06:24:54;10.40;99.90
16976;DHT22;8604;48.148;-1.786;2023-03-21T06:27:22;10.40;99.90
16976;DHT22;8604;48.148;-1.786;2023-03-21T06:29:58;10.40;99.90
16976;DHT22;8604;48.148;-1.786;2023-03-21T06:32:36;10.40;99.90
16976;DHT22;8604;48.148;-1.786;2023-03-21T06:35:09;10.50;99.90
16976;DHT22;8604;48.148;-1.786;2023-03-21T06:37:37;10.50;99.90
16976;DHT22;8604;48.148;-1.786;2023-03-21T06:40:07;10.50;99.90
16976;DHT22;8604;48.148;-1.786;2023-03-21T06:42:35;10.50;99.90
16976;DHT22;8604;48.148;-1.786;2023-03-21T06:45:10;10.60;99.90
16976;DHT22;8604;48.148;-1.786;2023-03-21T06:51:52;10.60;99.90
16976;DHT22;8604;48.148;-1.786;2023-03-21T06:54:39;10.70;99.90
16976;DHT22;8604;48.148;-1.786;2023-03-21T06:57:28;10.70;99.90
16976;DHT22;8604;48.148;-1.786;2023-03-21T07:00:29;10.80;99.90
16976;DHT22;8604;48.148;-1.786;2023-03-21T07:03:27;10.90;99.90
16976;DHT22;8604;48.148;-1.786;2023-03-21T07:06:47;10.90;99.90
16976;DHT22;8604;48.148;-1.786;2023-03-21T07:09:26;11.00;99.90
16976;DHT22;8604;48.148;-1.786;2023-03-21T07:12:17;11.00;99.90
16976;DHT22;8604;48.148;-1.786;2023-03-21T07:15:46;11.10;99.90
16976;DHT22;8604;48.148;-1.786;2023-03-21T07:22:25;11.20;99.90
16976;DHT22;8604;48.148;-1.786;2023-03-21T07:25:04;11.30;99.90
16976;DHT22;8604;48.148;-1.786;2023-03-21T07:27:55;11.30;99.90
16976;DHT22;8604;48.148;-1.786;2023-03-21T07:33:55;11.50;99.90
16976;DHT22;8604;48.148;-1.786;2023-03-21T07:36:42;11.60;99.90
16976;DHT22;8604;48.148;-1.786;2023-03-21T07:39:31;11.70;99.90
16976;DHT22;8604;48.148;-1.786;2023-03-21T07:42:21;11.80;99.90
16976;DHT22;8604;48.148;-1.786;2023-03-21T07:48:18;12.00;99.90
16976;DHT22;8604;48.148;-1.786;2023-03-21T07:50:48;12.00;99.90
16976;DHT22;8604;48.148;-1.786;2023-03-21T07:53:17;12.10;99.90
16976;DHT22;8604;48.148;-1.786;2023-03-21T07:55:49;12.10;99.90
16976;DHT22;8604;48.148;-1.786;2023-03-21T07:58:19;12.20;99.90
16976;DHT22;8604;48.148;-1.786;2023-03-21T08:00:47;12.20;99.90
16976;DHT22;8604;48.148;-1.786;2023-03-21T08:03:16;12.30;99.90
16976;DHT22;8604;48.148;-1.786;2023-03-21T08:05:46;12.40;99.90
16976;DHT22;8604;48.148;-1.786;2023-03-21T08:08:16;12.40;99.90
16976;DHT22;8604;48.148;-1.786;2023-03-21T08:10:45;12.50;99.90
16976;DHT22;8604;48.148;-1.786;2023-03-21T08:13:14;12.50;99.90
16976;DHT22;8604;48.148;-1.786;2023-03-21T08:15:44;12.70;99.90
16976;DHT22;8604;48.148;-1.786;2023-03-21T08:18:12;12.80;99.90
16976;DHT22;8604;48.148;-1.786;2023-03-21T08:20:41;12.90;99.90
16976;DHT22;8604;48.148;-1.786;2023-03-21T08:23:10;13.10;99.90
16976;DHT22;8604;48.148;-1.786;2023-03-21T08:25:42;13.30;99.90
16976;DHT22;8604;48.148;-1.786;2023-03-21T08:28:11;13.60;99.90
16976;DHT22;8604;48.148;-1.786;2023-03-21T08:30:39;13.80;99.90
16976;DHT22;8604;48.148;-1.786;2023-03-21T08:33:09;13.80;99.90
16976;DHT22;8604;48.148;-1.786;2023-03-21T08:35:40;14.00;99.90
16976;DHT22;8604;48.148;-1.786;2023-03-21T08:38:11;14.40;99.90
16976;DHT22;8604;48.148;-1.786;2023-03-21T08:40:43;14.90;99.90
16976;DHT22;8604;48.148;-1.786;2023-03-21T08:43:11;15.50;99.90
16976;DHT22;8604;48.148;-1.786;2023-03-21T08:45:44;15.50;99.90
16976;DHT22;8604;48.148;-1.786;2023-03-21T08:48:14;15.90;99.90
16976;DHT22;8604;48.148;-1.786;2023-03-21T08:50:43;15.90;99.90
16976;DHT22;8604;48.148;-1.786;2023-03-21T08:55:56;15.50;99.90
16976;DHT22;8604;48.148;-1.786;2023-03-21T08:58:26;15.40;99.90
16976;DHT22;8604;48.148;-1.786;2023-03-21T09:00:55;15.30;99.90
16976;DHT22;8604;48.148;-1.786;2023-03-21T09:03:25;15.50;99.90
16976;DHT22;8604;48.148;-1.786;2023-03-21T09:05:54;15.60;99.90
16976;DHT22;8604;48.148;-1.786;2023-03-21T09:08:24;15.50;99.90
16976;DHT22;8604;48.148;-1.786;2023-03-21T09:10:53;15.40;99.90
16976;DHT22;8604;48.148;-1.786;2023-03-21T09:13:23;15.40;99.90
16976;DHT22;8604;48.148;-1.786;2023-03-21T09:15:51;15.50;99.90
16976;DHT22;8604;48.148;-1.786;2023-03-21T09:18:20;15.90;99.90
16976;DHT22;8604;48.148;-1.786;2023-03-21T09:21:10;15.90;99.90
16976;DHT22;8604;48.148;-1.786;2023-03-21T09:23:59;16.20;99.90
16976;DHT22;8604;48.148;-1.786;2023-03-21T09:26:29;17.20;99.90
16976;DHT22;8604;48.148;-1.786;2023-03-21T09:28:57;18.20;99.90
16976;DHT22;8604;48.148;-1.786;2023-03-21T09:31:27;18.90;99.90
16976;DHT22;8604;48.148;-1.786;2023-03-21T09:34:10;19.20;99.90
16976;DHT22;8604;48.148;-1.786;2023-03-21T09:36:53;19.60;99.90
16976;DHT22;8604;48.148;-1.786;2023-03-21T09:39:41;20.10;99.90
16976;DHT22;8604;48.148;-1.786;2023-03-21T09:42:32;19.40;99.90
16976;DHT22;8604;48.148;-1.786;2023-03-21T09:45:11;18.70;99.90
16976;DHT22;8604;48.148;-1.786;2023-03-21T09:47:46;18.50;99.90
16976;DHT22;8604;48.148;-1.786;2023-03-21T09:50:21;19.10;99.90
16976;DHT22;8604;48.148;-1.786;2023-03-21T09:52:56;20.00;99.90
16976;DHT22;8604;48.148;-1.786;2023-03-21T09:55:28;20.60;99.90
16976;DHT22;8604;48.148;-1.786;2023-03-21T09:58:06;21.20;99.90
16976;DHT22;8604;48.148;-1.786;2023-03-21T10:01:00;21.40;99.90
16976;DHT22;8604;48.148;-1.786;2023-03-21T10:03:32;21.20;99.90
16976;DHT22;8604;48.148;-1.786;2023-03-21T10:06:04;21.50;99.90
16976;DHT22;8604;48.148;-1.786;2023-03-21T10:08:38;21.70;99.90
16976;DHT22;8604;48.148;-1.786;2023-03-21T10:11:11;22.00;99.90
16976;DHT22;8604;48.148;-1.786;2023-03-21T10:13:45;21.70;99.90
16976;DHT22;8604;48.148;-1.786;2023-03-21T10:16:18;21.00;99.90
16976;DHT22;8604;48.148;-1.786;2023-03-21T10:18:49;20.80;99.90
16976;DHT22;8604;48.148;-1.786;2023-03-21T10:21:21;21.00;99.90
16976;DHT22;8604;48.148;-1.786;2023-03-21T10:24:13;21.40;99.90
16976;DHT22;8604;48.148;-1.786;2023-03-21T10:26:44;22.10;99.90
16976;DHT22;8604;48.148;-1.786;2023-03-21T10:29:15;22.50;99.90
16976;DHT22;8604;48.148;-1.786;2023-03-21T10:31:45;22.40;99.90
16976;DHT22;8604;48.148;-1.786;2023-03-21T10:34:16;22.30;99.90
16976;DHT22;8604;48.148;-1.786;2023-03-21T10:36:46;22.70;99.90
16976;DHT22;8604;48.148;-1.786;2023-03-21T10:39:23;23.30;99.90
16976;DHT22;8604;48.148;-1.786;2023-03-21T10:41:53;23.90;99.90
16976;DHT22;8604;48.148;-1.786;2023-03-21T10:44:28;24.20;99.90
16976;DHT22;8604;48.148;-1.786;2023-03-21T10:46:58;23.90;99.90
16976;DHT22;8604;48.148;-1.786;2023-03-21T10:49:31;23.20;99.90
16976;DHT22;8604;48.148;-1.786;2023-03-21T10:52:10;22.80;99.90
16976;DHT22;8604;48.148;-1.786;2023-03-21T10:54:42;22.30;99.90
16976;DHT22;8604;48.148;-1.786;2023-03-21T10:57:15;22.20;99.90
16976;DHT22;8604;48.148;-1.786;2023-03-21T10:59:49;22.60;99.90
16976;DHT22;8604;48.148;-1.786;2023-03-21T11:02:24;22.90;99.90
16976;DHT22;8604;48.148;-1.786;2023-03-21T11:04:54;23.10;99.90
16976;DHT22;8604;48.148;-1.786;2023-03-21T11:07:27;23.30;99.90
16976;DHT22;8604;48.148;-1.786;2023-03-21T11:09:59;23.60;99.90
16976;DHT22;8604;48.148;-1.786;2023-03-21T11:12:30;23.70;99.90
16976;DHT22;8604;48.148;-1.786;2023-03-21T11:15:24;23.90;99.90
16976;DHT22;8604;48.148;-1.786;2023-03-21T11:17:53;24.10;99.90
16976;DHT22;8604;48.148;-1.786;2023-03-21T11:20:22;24.00;99.90
16976;DHT22;8604;48.148;-1.786;2023-03-21T11:22:53;23.80;99.90
16976;DHT22;8604;48.148;-1.786;2023-03-21T11:25:31;24.00;99.90
16976;DHT22;8604;48.148;-1.786;2023-03-21T11:28:05;23.90;99.90
16976;DHT22;8604;48.148;-1.786;2023-03-21T11:30:34;24.10;99.90
16976;DHT22;8604;48.148;-1.786;2023-03-21T11:33:05;23.50;99.90
16976;DHT22;8604;48.148;-1.786;2023-03-21T11:35:35;23.20;99.90
16976;DHT22;8604;48.148;-1.786;2023-03-21T11:38:05;23.20;99.90
16976;DHT22;8604;48.148;-1.786;2023-03-21T11:40:51;23.30;99.90
16976;DHT22;8604;48.148;-1.786;2023-03-21T11:43:28;23.90;99.90
16976;DHT22;8604;48.148;-1.786;2023-03-21T11:45:59;24.30;99.90
16976;DHT22;8604;48.148;-1.786;2023-03-21T11:48:37;24.20;99.90
16976;DHT22;8604;48.148;-1.786;2023-03-21T11:51:18;24.50;99.90
16976;DHT22;8604;48.148;-1.786;2023-03-21T11:53:58;24.80;99.90
16976;DHT22;8604;48.148;-1.786;2023-03-21T11:56:32;25.10;99.90
16976;DHT22;8604;48.148;-1.786;2023-03-21T11:59:13;24.80;99.90
16976;DHT22;8604;48.148;-1.786;2023-03-21T12:01:54;24.80;99.90
16976;DHT22;8604;48.148;-1.786;2023-03-21T12:04:45;24.80;99.90
16976;DHT22;8604;48.148;-1.786;2023-03-21T12:07:34;24.60;99.90
16976;DHT22;8604;48.148;-1.786;2023-03-21T12:10:38;24.10;99.90
16976;DHT22;8604;48.148;-1.786;2023-03-21T12:13:23;23.30;99.90
16976;DHT22;8604;48.148;-1.786;2023-03-21T12:16:04;22.60;99.90
16976;DHT22;8604;48.148;-1.786;2023-03-21T12:18:55;22.10;99.90
16976;DHT22;8604;48.148;-1.786;2023-03-21T12:21:33;21.90;99.90
16976;DHT22;8604;48.148;-1.786;2023-03-21T12:24:09;21.80;99.90
16976;DHT22;8604;48.148;-1.786;2023-03-21T12:26:44;21.70;99.90
16976;DHT22;8604;48.148;-1.786;2023-03-21T12:29:31;21.60;99.90
16976;DHT22;8604;48.148;-1.786;2023-03-21T12:32:21;21.60;99.90
16976;DHT22;8604;48.148;-1.786;2023-03-21T12:35:12;21.60;99.90
16976;DHT22;8604;48.148;-1.786;2023-03-21T12:37:49;21.50;99.90
16976;DHT22;8604;48.148;-1.786;2023-03-21T12:40:34;21.50;99.90
16976;DHT22;8604;48.148;-1.786;2023-03-21T12:43:23;21.60;99.90
16976;DHT22;8604;48.148;-1.786;2023-03-21T12:45:57;21.50;99.90
16976;DHT22;8604;48.148;-1.786;2023-03-21T12:48:35;21.30;99.90
16976;DHT22;8604;48.148;-1.786;2023-03-21T12:51:10;21.20;99.90
16976;DHT22;8604;48.148;-1.786;2023-03-21T12:53:48;21.10;99.90
16976;DHT22;8604;48.148;-1.786;2023-03-21T12:56:22;21.10;99.90
16976;DHT22;8604;48.148;-1.786;2023-03-21T12:58:57;21.10;99.90
16976;DHT22;8604;48.148;-1.786;2023-03-21T13:01:29;20.90;99.90
16976;DHT22;8604;48.148;-1.786;2023-03-21T13:04:20;20.80;99.90
16976;DHT22;8604;48.148;-1.786;2023-03-21T13:06:55;20.80;99.90
16976;DHT22;8604;48.148;-1.786;2023-03-21T13:09:33;20.80;99.90
16976;DHT22;8604;48.148;-1.786;2023-03-21T13:12:18;20.70;99.90
16976;DHT22;8604;48.148;-1.786;2023-03-21T13:17:57;20.50;99.90
16976;DHT22;8604;48.148;-1.786;2023-03-21T13:20:34;20.60;99.90
16976;DHT22;8604;48.148;-1.786;2023-03-21T13:23:06;20.60;99.90
16976;DHT22;8604;48.148;-1.786;2023-03-21T13:25:41;20.50;99.90
16976;DHT22;8604;48.148;-1.786;2023-03-21T13:28:18;20.40;99.90
16976;DHT22;8604;48.148;-1.786;2023-03-21T13:30:47;20.30;99.90
16976;DHT22;8604;48.148;-1.786;2023-03-21T13:33:20;20.30;99.90
16976;DHT22;8604;48.148;-1.786;2023-03-21T13:35:57;20.30;99.90
16976;DHT22;8604;48.148;-1.786;2023-03-21T13:38:32;20.30;99.90
16976;DHT22;8604;48.148;-1.786;2023-03-21T13:41:06;20.10;99.90
16976;DHT22;8604;48.148;-1.786;2023-03-21T13:43:41;20.10;99.90
16976;DHT22;8604;48.148;-1.786;2023-03-21T13:46:11;20.10;99.90
16976;DHT22;8604;48.148;-1.786;2023-03-21T13:48:46;20.00;99.90
16976;DHT22;8604;48.148;-1.786;2023-03-21T13:51:44;20.00;99.90
16976;DHT22;8604;48.148;-1.786;2023-03-21T13:54:18;20.00;99.90
16976;DHT22;8604;48.148;-1.786;2023-03-21T13:56:56;20.00;99.90
16976;DHT22;8604;48.148;-1.786;2023-03-21T13:59:41;19.80;99.90
16976;DHT22;8604;48.148;-1.786;2023-03-21T14:02:30;19.70;99.90
16976;DHT22;8604;48.148;-1.786;2023-03-21T14:05:04;19.80;99.90
16976;DHT22;8604;48.148;-1.786;2023-03-21T14:07:36;19.80;99.90
16976;DHT22;8604;48.148;-1.786;2023-03-21T14:10:17;19.60;99.90
16976;DHT22;8604;48.148;-1.786;2023-03-21T14:12:47;19.40;99.90
16976;DHT22;8604;48.148;-1.786;2023-03-21T14:15:19;19.20;99.90
16976;DHT22;8604;48.148;-1.786;2023-03-21T14:17:50;19.20;99.90
16976;DHT22;8604;48.148;-1.786;2023-03-21T14:20:23;19.20;99.90
16976;DHT22;8604;48.148;-1.786;2023-03-21T14:22:53;19.20;99.90
16976;DHT22;8604;48.148;-1.786;2023-03-21T14:25:23;19.20;99.90
16976;DHT22;8604;48.148;-1.786;2023-03-21T14:28:03;19.00;99.90
16976;DHT22;8604;48.148;-1.786;2023-03-21T14:30:38;18.80;99.90
16976;DHT22;8604;48.148;-1.786;2023-03-21T14:33:12;18.80;99.90
16976;DHT22;8604;48.148;-1.786;2023-03-21T14:39:06;18.70;99.90
16976;DHT22;8604;48.148;-1.786;2023-03-21T14:41:46;18.60;99.90
16976;DHT22;8604;48.148;-1.786;2023-03-21T14:44:21;18.40;99.90
16976;DHT22;8604;48.148;-1.786;2023-03-21T14:46:53;18.30;99.90
16976;DHT22;8604;48.148;-1.786;2023-03-21T14:49:32;18.20;99.90
16976;DHT22;8604;48.148;-1.786;2023-03-21T14:52:02;18.30;99.90
16976;DHT22;8604;48.148;-1.786;2023-03-21T14:54:34;18.30;99.90
16976;DHT22;8604;48.148;-1.786;2023-03-21T14:57:08;18.10;99.90
16976;DHT22;8604;48.148;-1.786;2023-03-21T14:59:38;18.00;99.90
16976;DHT22;8604;48.148;-1.786;2023-03-21T15:02:15;17.90;99.90
16976;DHT22;8604;48.148;-1.786;2023-03-21T15:04:45;17.90;99.90
16976;DHT22;8604;48.148;-1.786;2023-03-21T15:07:25;17.90;99.90
16976;DHT22;8604;48.148;-1.786;2023-03-21T15:13:22;17.90;99.90
16976;DHT22;8604;48.148;-1.786;2023-03-21T15:15:52;17.90;99.90
16976;DHT22;8604;48.148;-1.786;2023-03-21T15:18:26;17.80;99.90
16976;DHT22;8604;48.148;-1.786;2023-03-21T15:20:56;17.80;99.90
16976;DHT22;8604;48.148;-1.786;2023-03-21T15:23:27;17.70;99.90
16976;DHT22;8604;48.148;-1.786;2023-03-21T15:26:01;17.70;99.90
16976;DHT22;8604;48.148;-1.786;2023-03-21T15:28:32;17.70;99.90
16976;DHT22;8604;48.148;-1.786;2023-03-21T15:31:03;17.70;99.90
16976;DHT22;8604;48.148;-1.786;2023-03-21T15:33:58;17.60;99.90
16976;DHT22;8604;48.148;-1.786;2023-03-21T15:36:55;17.40;99.90
16976;DHT22;8604;48.148;-1.786;2023-03-21T15:39:26;17.40;99.90
16976;DHT22;8604;48.148;-1.786;2023-03-21T15:41:58;17.30;99.90
16976;DHT22;8604;48.148;-1.786;2023-03-21T15:44:29;17.30;99.90
16976;DHT22;8604;48.148;-1.786;2023-03-21T15:47:00;17.20;99.90
16976;DHT22;8604;48.148;-1.786;2023-03-21T15:49:30;17.00;99.90
16976;DHT22;8604;48.148;-1.786;2023-03-21T15:52:05;17.00;99.90
16976;DHT22;8604;48.148;-1.786;2023-03-21T15:54:41;16.90;99.90
16976;DHT22;8604;48.148;-1.786;2023-03-21T15:57:26;16.80;99.90
16976;DHT22;8604;48.148;-1.786;2023-03-21T16:00:17;16.70;99.90
16976;DHT22;8604;48.148;-1.786;2023-03-21T16:02:48;16.70;99.90
16976;DHT22;8604;48.148;-1.786;2023-03-21T16:05:24;16.70;99.90
16976;DHT22;8604;48.148;-1.786;2023-03-21T16:07:57;16.70;99.90
16976;DHT22;8604;48.148;-1.786;2023-03-21T16:10:28;16.70;99.90
16976;DHT22;8604;48.148;-1.786;2023-03-21T16:12:57;16.60;99.90
16976;DHT22;8604;48.148;-1.786;2023-03-21T16:15:28;16.60;99.90
16976;DHT22;8604;48.148;-1.786;2023-03-21T16:17:58;16.50;99.90
16976;DHT22;8604;48.148;-1.786;2023-03-21T16:20:31;16.50;99.90
16976;DHT22;8604;48.148;-1.786;2023-03-21T16:23:00;16.30;99.90
16976;DHT22;8604;48.148;-1.786;2023-03-21T16:25:29;16.20;99.90
16976;DHT22;8604;48.148;-1.786;2023-03-21T16:27:58;16.20;99.90
16976;DHT22;8604;48.148;-1.786;2023-03-21T16:30:28;16.20;99.90
16976;DHT22;8604;48.148;-1.786;2023-03-21T16:32:57;16.10;99.90
16976;DHT22;8604;48.148;-1.786;2023-03-21T16:35:25;16.10;99.90
16976;DHT22;8604;48.148;-1.786;2023-03-21T16:37:54;16.00;99.90
16976;DHT22;8604;48.148;-1.786;2023-03-21T16:40:26;15.80;99.90
16976;DHT22;8604;48.148;-1.786;2023-03-21T16:42:56;15.80;99.90
16976;DHT22;8604;48.148;-1.786;2023-03-21T16:45:24;15.70;99.90
16976;DHT22;8604;48.148;-1.786;2023-03-21T16:47:56;15.70;99.90
16976;DHT22;8604;48.148;-1.786;2023-03-21T16:50:27;15.60;99.90
16976;DHT22;8604;48.148;-1.786;2023-03-21T16:52:56;15.50;99.90
16976;DHT22;8604;48.148;-1.786;2023-03-21T16:55:25;15.40;99.90
16976;DHT22;8604;48.148;-1.786;2023-03-21T16:57:54;15.30;99.90
16976;DHT22;8604;48.148;-1.786;2023-03-21T17:00:25;15.30;99.90